createdAt,value
2023-04-19T00:00:39.085Z,8.63
2023-04-19T00:03:07.828Z,7.88
2023-04-19T00:05:35.623Z,7.68
2023-04-19T00:08:03.294Z,8.18
2023-04-19T00:10:30.801Z,8.13
2023-04-19T00:12:58.407Z,8.45
2023-04-19T00:15:27.603Z,7.65
2023-04-19T00:17:55.325Z,9.63
2023-04-19T00:20:23.079Z,7.78
2023-04-19T00:22:50.655Z,7.97
2023-04-19T00:25:18.174Z,8.25
2023-04-19T00:27:45.815Z,7.97
2023-04-19T00:30:14.168Z,8.25
2023-04-19T00:32:43.109Z,7.45
2023-04-19T00:35:10.991Z,7.95
2023-04-19T00:37:38.617Z,6.78
2023-04-19T00:40:07.345Z,7.65
2023-04-19T00:42:37.519Z,7.75
2023-04-19T00:45:06.797Z,8.85
2023-04-19T00:47:34.763Z,7.60
2023-04-19T00:50:04.454Z,7.32
2023-04-19T00:52:33.871Z,8.23
2023-04-19T00:55:02.895Z,8.05
2023-04-19T00:57:31.105Z,8.25
2023-04-19T00:59:58.877Z,8.23
2023-04-19T01:02:28.398Z,8.30
2023-04-19T01:04:56.310Z,7.40
2023-04-19T01:07:25.504Z,8.40
2023-04-19T01:09:53.100Z,7.38
2023-04-19T01:12:23.047Z,8.43
2023-04-19T01:14:51.288Z,8.20
2023-04-19T01:17:19.699Z,8.00
2023-04-19T01:19:47.553Z,8.18
2023-04-19T01:22:18.165Z,8.38
2023-04-19T01:24:45.681Z,8.45
2023-04-19T01:27:14.069Z,7.63
2023-04-19T01:29:41.683Z,8.40
2023-04-19T01:32:09.294Z,8.15
2023-04-19T01:34:36.962Z,8.02
2023-04-19T01:37:05.322Z,7.85
2023-04-19T01:39:36.000Z,8.32
2023-04-19T01:42:04.244Z,8.55
2023-04-19T01:44:31.849Z,8.40
2023-04-19T01:47:00.885Z,8.25
2023-04-19T01:49:28.486Z,8.02
2023-04-19T01:51:56.086Z,8.25
2023-04-19T01:54:23.673Z,8.60
2023-04-19T01:56:52.712Z,9.27
2023-04-19T01:59:20.805Z,8.85
2023-04-19T02:01:48.433Z,8.85
2023-04-19T02:04:16.240Z,8.65
2023-04-19T02:06:43.987Z,9.25
2023-04-19T02:09:11.523Z,8.18
2023-04-19T02:11:42.435Z,8.32
2023-04-19T02:14:11.573Z,9.32
2023-04-19T02:16:39.144Z,8.98
2023-04-19T02:19:07.763Z,8.75
2023-04-19T02:21:35.398Z,9.63
2023-04-19T02:24:02.985Z,8.38
2023-04-19T02:26:30.587Z,9.68
2023-04-19T02:28:58.251Z,9.25
2023-04-19T02:31:27.228Z,8.63
2023-04-19T02:33:54.880Z,9.32
2023-04-19T02:36:22.503Z,8.70
2023-04-19T02:38:50.187Z,8.45
2023-04-19T02:41:17.984Z,8.95
2023-04-19T02:43:45.638Z,8.93
2023-04-19T02:46:14.056Z,8.80
2023-04-19T02:48:43.111Z,8.80
2023-04-19T02:51:16.341Z,9.10
2023-04-19T02:53:44.074Z,9.60
2023-04-19T02:56:11.701Z,8.95
2023-04-19T02:58:39.286Z,8.93
2023-04-19T03:01:07.707Z,8.93
2023-04-19T03:03:35.491Z,8.95
2023-04-19T03:06:04.950Z,9.60
2023-04-19T03:08:33.876Z,8.98
2023-04-19T03:11:01.546Z,9.48
2023-04-19T03:13:31.487Z,8.98
2023-04-19T03:15:59.104Z,10.02
2023-04-19T03:18:28.212Z,9.48
2023-04-19T03:20:58.189Z,8.32
2023-04-19T03:23:30.982Z,7.82
2023-04-19T03:26:01.066Z,8.70
2023-04-19T03:28:38.698Z,8.82
2023-04-19T03:31:17.385Z,8.82
2023-04-19T03:33:46.145Z,8.73
2023-04-19T03:36:14.445Z,8.63
2023-04-19T03:38:45.689Z,8.18
2023-04-19T03:41:22.018Z,8.32
2023-04-19T03:43:54.717Z,8.38
2023-04-19T03:46:25.621Z,8.35
2023-04-19T03:48:53.931Z,8.82
2023-04-19T03:51:22.237Z,7.90
2023-04-19T03:53:51.172Z,7.95
2023-04-19T03:56:20.452Z,7.47
2023-04-19T03:58:51.656Z,8.32
2023-04-19T04:01:20.566Z,7.80
2023-04-19T04:03:48.965Z,9.40
2023-04-19T04:06:18.515Z,7.82
2023-04-19T04:08:46.785Z,7.65
2023-04-19T04:11:15.914Z,8.02
2023-04-19T04:13:48.784Z,8.23
2023-04-19T04:16:20.056Z,7.78
2023-04-19T04:18:48.802Z,7.63
2023-04-19T04:21:16.806Z,8.07
2023-04-19T04:23:47.367Z,7.78
2023-04-19T04:26:25.284Z,7.28
2023-04-19T04:29:00.445Z,7.95
2023-04-19T04:31:28.279Z,7.75
2023-04-19T04:33:56.802Z,7.22
2023-04-19T04:36:26.166Z,15.40
2023-04-19T04:38:55.373Z,8.23
2023-04-19T04:41:25.201Z,7.60
2023-04-19T04:44:08.286Z,7.72
2023-04-19T04:46:39.919Z,7.38
2023-04-19T04:49:08.529Z,7.53
2023-04-19T04:51:37.204Z,6.85
2023-04-19T04:54:06.072Z,7.47
2023-04-19T04:56:36.815Z,6.75
2023-04-19T04:59:04.475Z,7.05
2023-04-19T05:01:35.944Z,7.45
2023-04-19T05:04:03.652Z,7.32
2023-04-19T05:06:31.762Z,6.82
2023-04-19T05:09:00.978Z,7.25
2023-04-19T05:11:34.382Z,6.60
2023-04-19T05:14:04.100Z,6.95
2023-04-19T05:16:33.631Z,6.53
2023-04-19T05:19:01.830Z,5.93
2023-04-19T05:21:34.562Z,6.75
2023-04-19T05:24:04.575Z,6.97
2023-04-19T05:26:34.343Z,7.30
2023-04-19T05:29:04.271Z,10.60
2023-04-19T05:31:53.124Z,7.68
2023-04-19T05:34:28.034Z,6.82
2023-04-19T05:36:57.494Z,6.38
2023-04-19T05:39:25.105Z,7.53
2023-04-19T05:41:52.860Z,7.53
2023-04-19T05:44:21.754Z,7.32
2023-04-19T05:46:50.051Z,6.75
2023-04-19T05:49:30.416Z,6.97
2023-04-19T05:52:14.470Z,7.10
2023-04-19T05:54:47.242Z,6.70
2023-04-19T05:57:14.999Z,6.70
2023-04-19T05:59:43.940Z,9.05
2023-04-19T06:02:13.814Z,7.53
2023-04-19T06:04:42.283Z,6.53
2023-04-19T06:07:26.758Z,6.80
2023-04-19T06:09:58.498Z,6.78
2023-04-19T06:12:26.221Z,6.93
2023-04-19T06:14:55.570Z,6.53
2023-04-19T06:17:25.366Z,7.13
2023-04-19T06:19:53.768Z,5.90
2023-04-19T06:22:21.556Z,6.40
2023-04-19T06:24:49.277Z,6.70
2023-04-19T06:27:17.802Z,6.63
2023-04-19T06:29:45.474Z,6.68
2023-04-19T06:32:14.376Z,5.88
2023-04-19T06:34:41.927Z,6.65
2023-04-19T06:37:09.469Z,6.55
2023-04-19T06:39:37.247Z,6.40
2023-04-19T06:42:05.514Z,6.95
2023-04-19T06:44:34.376Z,6.32
2023-04-19T06:47:01.947Z,6.45
2023-04-19T06:49:30.932Z,6.70
2023-04-19T06:51:59.436Z,7.05
2023-04-19T06:54:26.969Z,5.78
2023-04-19T06:56:54.489Z,6.25
2023-04-19T06:59:22.135Z,5.85
2023-04-19T07:01:49.884Z,6.57
2023-04-19T07:04:18.610Z,6.38
2023-04-19T07:06:50.817Z,6.13
2023-04-19T07:09:18.370Z,6.57
2023-04-19T07:11:47.532Z,6.70
2023-04-19T07:14:15.525Z,6.90
2023-04-19T07:16:43.847Z,6.45
2023-04-19T07:19:11.588Z,5.90
2023-04-19T07:21:39.669Z,6.25
2023-04-19T07:24:08.914Z,6.00
2023-04-19T07:26:36.495Z,7.20
2023-04-19T07:29:04.444Z,6.35
2023-04-19T07:31:31.993Z,5.35
2023-04-19T07:33:59.733Z,6.20
2023-04-19T07:36:27.724Z,6.28
2023-04-19T07:38:55.573Z,5.57
2023-04-19T07:41:24.556Z,5.70
2023-04-19T07:43:52.159Z,5.95
2023-04-19T07:46:20.051Z,5.68
2023-04-19T07:48:47.723Z,5.40
2023-04-19T07:51:17.255Z,5.80
2023-04-19T07:53:45.054Z,5.07
2023-04-19T07:56:13.260Z,5.38
2023-04-19T07:58:43.063Z,4.55
2023-04-19T08:01:11.692Z,5.18
2023-04-19T08:03:39.452Z,5.45
2023-04-19T08:06:08.296Z,5.43
2023-04-19T08:08:36.032Z,4.78
2023-04-19T08:11:04.122Z,5.22
2023-04-19T08:13:31.838Z,5.50
2023-04-19T08:18:31.897Z,4.90
2023-04-19T08:20:59.527Z,4.95
2023-04-19T08:23:37.827Z,4.78
2023-04-19T08:26:12.790Z,4.57
2023-04-19T08:28:40.457Z,5.25
2023-04-19T08:31:10.292Z,4.70
2023-04-19T08:33:37.847Z,4.28
2023-04-19T08:36:05.737Z,5.90
2023-04-19T08:38:33.364Z,4.97
2023-04-19T08:41:01.999Z,5.00
2023-04-19T08:43:33.502Z,5.35
2023-04-19T08:46:02.007Z,5.13
2023-04-19T08:48:32.341Z,4.90
2023-04-19T08:51:05.591Z,5.28
2023-04-19T08:53:35.476Z,5.32
2023-04-19T08:56:15.103Z,5.22
2023-04-19T09:01:31.116Z,5.22
2023-04-19T09:04:16.955Z,6.13
2023-04-19T09:06:51.278Z,5.30
2023-04-19T09:11:53.167Z,5.78
2023-04-19T09:14:22.133Z,6.43
2023-04-19T09:16:52.016Z,6.28
2023-04-19T09:19:24.933Z,6.70
2023-04-19T09:27:11.851Z,6.00
2023-04-19T09:29:39.586Z,5.88
2023-04-19T09:32:07.263Z,5.00
2023-04-19T09:34:36.273Z,5.15
2023-04-19T09:37:21.244Z,5.22
2023-04-19T09:40:00.568Z,4.72
2023-04-19T09:43:02.667Z,4.47
2023-04-19T09:45:42.208Z,4.80
2023-04-19T09:48:10.528Z,4.75
2023-04-19T09:50:58.958Z,4.63
2023-04-19T09:53:29.749Z,4.93
2023-04-19T09:56:02.337Z,5.20
2023-04-19T09:58:46.271Z,5.25
2023-04-19T10:01:17.753Z,5.15
2023-04-19T10:03:48.801Z,4.18
2023-04-19T10:08:54.375Z,5.10
2023-04-19T10:11:23.087Z,5.00
2023-04-19T10:13:54.564Z,5.88
2023-04-19T10:16:22.470Z,5.05
2023-04-19T10:18:52.278Z,6.15
2023-04-19T10:21:21.563Z,5.00
2023-04-19T10:23:49.453Z,6.50
2023-04-19T10:26:17.115Z,4.53
2023-04-19T10:28:44.655Z,4.55
2023-04-19T10:31:13.978Z,3.97
2023-04-19T10:33:42.463Z,4.70
2023-04-19T10:36:11.651Z,4.93
2023-04-19T10:38:43.171Z,5.05
2023-04-19T10:41:17.117Z,5.00
2023-04-19T10:43:47.014Z,5.82
2023-04-19T10:46:17.301Z,5.47
2023-04-19T10:48:56.335Z,4.63
2023-04-19T10:51:27.746Z,4.57
2023-04-19T10:54:00.826Z,4.63
2023-04-19T10:57:11.763Z,4.50
2023-04-19T10:59:42.778Z,4.13
2023-04-19T11:02:28.741Z,4.50
2023-04-19T11:05:04.073Z,3.72
2023-04-19T11:07:43.383Z,4.40
2023-04-19T11:10:12.772Z,5.13
2023-04-19T11:12:44.798Z,3.95
2023-04-19T11:15:12.418Z,3.80
2023-04-19T11:17:40.719Z,4.13
2023-04-19T11:20:10.716Z,4.68
2023-04-19T11:22:39.536Z,4.82
2023-04-19T11:25:12.918Z,4.22
2023-04-19T11:30:11.437Z,4.55
2023-04-19T11:32:39.946Z,4.70
2023-04-19T11:35:09.887Z,5.10
2023-04-19T11:37:39.125Z,4.00
2023-04-19T11:40:08.284Z,4.90
2023-04-19T11:42:37.343Z,5.22
2023-04-19T11:45:08.966Z,5.53
2023-04-19T11:47:49.032Z,4.60
2023-04-19T11:50:37.021Z,4.55
2023-04-19T11:53:12.697Z,4.38
2023-04-19T11:55:42.792Z,4.68
2023-04-19T11:58:24.336Z,4.57
2023-04-19T12:00:52.295Z,4.70
2023-04-19T12:03:25.721Z,4.78
2023-04-19T12:05:55.947Z,5.03
2023-04-19T12:08:33.982Z,4.95
2023-04-19T12:11:03.262Z,5.18
2023-04-19T12:13:32.996Z,4.47
2023-04-19T12:16:01.648Z,4.22
2023-04-19T12:18:29.428Z,5.20
2023-04-19T12:20:57.956Z,5.25
2023-04-19T12:23:27.008Z,4.80
2023-04-19T12:25:54.528Z,4.25
2023-04-19T12:28:23.692Z,4.65
2023-04-19T12:30:52.999Z,5.35
2023-04-19T12:33:21.679Z,5.70
2023-04-19T12:35:51.021Z,5.53
2023-04-19T12:38:18.562Z,5.15
2023-04-19T12:40:46.358Z,5.72
2023-04-19T12:43:14.015Z,5.15
2023-04-19T12:45:41.596Z,5.80
2023-04-19T12:48:10.528Z,6.40
2023-04-19T12:50:38.071Z,5.72
2023-04-19T12:53:06.797Z,6.50
2023-04-19T12:55:34.338Z,6.80
2023-04-19T12:58:01.886Z,7.43
2023-04-19T13:00:30.125Z,8.52
2023-04-19T13:02:57.810Z,7.80
2023-04-19T13:05:26.809Z,7.53
2023-04-19T13:07:54.374Z,8.02
2023-04-19T13:10:21.898Z,8.27
2023-04-19T13:12:49.430Z,8.02
2023-04-19T13:15:17.232Z,8.00
2023-04-19T13:17:44.904Z,9.43
2023-04-19T13:20:13.169Z,8.43
2023-04-19T13:22:42.087Z,8.43
2023-04-19T13:25:10.349Z,7.95
2023-04-19T13:27:37.981Z,7.63
2023-04-19T13:30:06.391Z,7.28
2023-04-19T13:32:34.056Z,7.13
2023-04-19T13:35:01.631Z,7.03
2023-04-19T13:37:29.644Z,6.43
2023-04-19T13:40:10.503Z,6.97
2023-04-19T13:42:42.771Z,7.32
2023-04-19T13:45:10.941Z,6.88
2023-04-19T13:47:38.545Z,6.70
2023-04-19T13:50:07.152Z,6.45
2023-04-19T13:52:34.668Z,6.38
2023-04-19T13:55:03.660Z,6.20
2023-04-19T13:57:31.308Z,6.35
2023-04-19T13:59:58.856Z,5.97
2023-04-19T14:02:26.632Z,6.00
2023-04-19T14:04:54.364Z,5.53
2023-04-19T14:07:21.943Z,6.32
2023-04-19T14:09:49.521Z,6.35
2023-04-19T14:12:18.520Z,6.65
2023-04-19T14:14:46.090Z,6.82
2023-04-19T14:17:13.614Z,6.32
2023-04-19T14:19:41.181Z,7.18
2023-04-19T14:22:08.763Z,7.28
2023-04-19T14:24:36.406Z,6.90
2023-04-19T14:27:11.061Z,7.00
2023-04-19T14:29:40.723Z,6.65
2023-04-19T14:32:24.500Z,6.93
2023-04-19T14:34:54.577Z,6.72
2023-04-19T14:37:23.350Z,5.82
2023-04-19T14:39:51.116Z,6.38
2023-04-19T14:42:20.800Z,6.75
2023-04-19T14:44:52.773Z,6.55
2023-04-19T14:47:20.755Z,5.15
2023-04-19T14:49:48.548Z,5.78
2023-04-19T14:52:16.451Z,5.97
2023-04-19T14:54:44.270Z,6.85
2023-04-19T14:57:12.013Z,5.78
2023-04-19T14:59:39.714Z,6.30
2023-04-19T15:02:10.513Z,5.78
2023-04-19T15:04:40.690Z,5.88
2023-04-19T15:07:08.893Z,6.65
2023-04-19T15:09:36.485Z,5.50
2023-04-19T15:12:04.384Z,5.97
2023-04-19T15:14:31.972Z,4.97
2023-04-19T15:16:59.597Z,5.53
2023-04-19T15:19:29.641Z,5.85
2023-04-19T15:21:57.379Z,5.60
2023-04-19T15:24:24.944Z,5.38
2023-04-19T15:26:52.524Z,6.28
2023-04-19T15:29:20.037Z,5.40
2023-04-19T15:31:47.745Z,6.10
2023-04-19T15:34:15.411Z,7.07
2023-04-19T15:36:44.781Z,6.45
2023-04-19T15:39:12.353Z,6.60
2023-04-19T15:41:39.913Z,6.85
2023-04-19T15:44:07.445Z,7.07
2023-04-19T15:46:35.097Z,6.20
2023-04-19T15:49:03.785Z,6.47
2023-04-19T15:51:31.606Z,7.00
2023-04-19T15:54:00.745Z,6.25
2023-04-19T15:56:28.344Z,7.40
2023-04-19T15:58:55.901Z,5.40
2023-04-19T16:01:23.518Z,5.72
2023-04-19T16:03:51.208Z,5.55
2023-04-19T16:06:18.865Z,5.82
2023-04-19T16:08:46.459Z,5.38
2023-04-19T16:11:15.478Z,5.60
2023-04-19T16:13:43.267Z,6.82
2023-04-19T16:16:10.905Z,5.93
2023-04-19T16:18:38.463Z,6.10
2023-04-19T16:21:06.462Z,4.50
2023-04-19T16:23:34.082Z,3.47
2023-04-19T16:26:01.770Z,2.60
2023-04-19T16:28:30.755Z,2.40
2023-04-19T16:30:58.356Z,2.17
2023-04-19T16:33:26.018Z,2.40
2023-04-19T16:35:53.650Z,2.75
2023-04-19T16:38:21.291Z,3.05
2023-04-19T16:40:50.099Z,3.58
2023-04-19T16:43:17.847Z,3.60
2023-04-19T16:45:46.811Z,3.50
2023-04-19T16:48:14.642Z,2.88
2023-04-19T16:50:42.334Z,5.15
2023-04-19T16:53:09.918Z,3.55
2023-04-19T16:55:37.707Z,3.20
2023-04-19T16:58:05.430Z,4.80
2023-04-19T17:00:33.087Z,3.50
2023-04-19T17:03:02.116Z,3.20
2023-04-19T17:05:32.001Z,3.10
2023-04-19T17:07:59.956Z,2.88
2023-04-19T17:10:28.254Z,2.20
2023-04-19T17:12:56.423Z,2.25
2023-04-19T17:15:24.082Z,2.47
2023-04-19T17:17:51.785Z,2.08
2023-04-19T17:20:21.088Z,2.70
2023-04-19T17:22:48.594Z,2.50
2023-04-19T17:25:16.351Z,2.10
2023-04-19T17:27:44.380Z,2.20
2023-04-19T17:34:24.577Z,2.35
2023-04-19T17:36:53.514Z,2.47
2023-04-19T17:39:21.102Z,2.58
2023-04-19T17:41:48.626Z,2.47
2023-04-19T17:44:16.240Z,2.60
2023-04-19T17:46:43.820Z,2.95
2023-04-19T17:49:12.680Z,2.95
2023-04-19T17:51:40.253Z,1.55
2023-04-19T17:54:10.212Z,1.70
2023-04-19T17:56:37.759Z,1.52
2023-04-19T17:59:05.344Z,1.40
2023-04-19T18:01:34.877Z,0.90
2023-04-19T18:04:02.730Z,0.88
2023-04-19T18:06:31.671Z,0.75
2023-04-19T18:08:59.576Z,0.80
2023-04-19T18:11:28.829Z,0.60
2023-04-19T18:13:56.698Z,0.85
2023-04-19T18:16:24.438Z,1.27
2023-04-19T18:18:52.132Z,0.75
2023-04-19T18:21:19.746Z,0.60
2023-04-19T18:23:47.508Z,0.60
2023-04-19T18:26:15.140Z,0.70
2023-04-19T18:28:44.155Z,0.50
2023-04-19T18:31:11.737Z,0.77
2023-04-19T18:33:39.279Z,0.70
2023-04-19T18:36:07.129Z,0.60
2023-04-19T18:38:34.776Z,0.70
2023-04-19T18:41:02.386Z,1.00
2023-04-19T18:43:30.972Z,0.75
2023-04-19T18:46:01.317Z,0.85
2023-04-19T18:48:29.836Z,0.80
2023-04-19T18:50:57.795Z,1.23
2023-04-19T18:53:26.836Z,0.77
2023-04-19T18:55:57.393Z,0.60
2023-04-19T18:58:25.102Z,1.00
2023-04-19T19:00:52.962Z,0.88
2023-04-19T19:03:48.347Z,0.82
2023-04-19T19:06:11.511Z,0.80
2023-04-19T19:08:39.449Z,0.82
2023-04-19T19:11:29.212Z,0.88
2023-04-19T19:13:54.730Z,0.77
2023-04-19T19:16:22.493Z,1.10
2023-04-19T19:18:51.531Z,0.80
2023-04-19T19:21:19.648Z,1.02
2023-04-19T19:23:47.422Z,1.05
2023-04-19T19:26:15.178Z,0.88
2023-04-19T19:28:43.188Z,1.30
2023-04-19T19:31:11.049Z,1.10
2023-04-19T19:33:40.564Z,1.00
2023-04-19T19:36:09.850Z,0.80
2023-04-19T19:38:37.673Z,0.98
2023-04-19T19:43:36.942Z,1.00
2023-04-19T19:46:04.517Z,1.30
2023-04-19T19:48:37.130Z,1.15
2023-04-19T19:51:41.720Z,0.85
2023-04-19T19:53:57.582Z,0.90
2023-04-19T19:56:25.262Z,0.90
2023-04-19T19:58:52.819Z,1.10
2023-04-19T20:01:22.723Z,0.82
2023-04-19T20:03:51.033Z,1.02
2023-04-19T20:07:13.596Z,0.93
2023-04-19T20:09:07.798Z,0.98
2023-04-19T20:11:35.433Z,1.27
2023-04-19T20:14:03.092Z,8.30
2023-04-19T20:16:30.752Z,4.00
2023-04-19T20:18:59.432Z,2.80
2023-04-19T20:21:27.087Z,2.78
2023-04-19T20:23:54.892Z,2.15
2023-04-19T20:26:24.046Z,1.90
2023-04-19T20:28:52.558Z,2.15
2023-04-19T20:31:21.445Z,2.20
2023-04-19T20:33:52.400Z,3.70
2023-04-19T20:36:22.513Z,3.38
2023-04-19T20:38:50.199Z,3.70
2023-04-19T20:41:19.081Z,2.72
2023-04-19T20:43:48.118Z,2.83
2023-04-19T20:46:16.710Z,3.08
2023-04-19T20:48:44.271Z,3.22
2023-04-19T20:51:12.683Z,2.60
2023-04-19T20:53:40.483Z,2.85
2023-04-19T20:56:08.022Z,2.20
2023-04-19T20:58:37.685Z,1.88
2023-04-19T21:01:06.737Z,2.67
2023-04-19T21:03:34.371Z,1.20
2023-04-19T21:06:02.181Z,1.15
2023-04-19T21:08:29.772Z,1.10
2023-04-19T21:10:57.335Z,0.85
2023-04-19T21:13:25.043Z,0.85
2023-04-19T21:15:52.714Z,1.33
2023-04-19T21:18:22.727Z,1.00
2023-04-19T21:20:50.371Z,0.88
2023-04-19T21:23:17.956Z,1.08
2023-04-19T21:25:45.630Z,1.50
2023-04-19T21:28:13.236Z,3.45
2023-04-19T21:30:43.210Z,4.88
2023-04-19T21:33:10.854Z,1.40
2023-04-19T21:35:39.922Z,1.33
2023-04-19T21:38:07.595Z,1.33
2023-04-19T21:40:35.136Z,1.15
2023-04-19T21:43:02.777Z,1.33
2023-04-19T21:45:30.413Z,1.38
2023-04-19T21:47:57.972Z,1.10
2023-04-19T21:50:25.759Z,1.25
2023-04-19T21:52:54.663Z,1.20
2023-04-19T21:55:22.448Z,0.90
2023-04-19T21:57:50.154Z,1.45
2023-04-19T22:00:18.171Z,1.20
2023-04-19T22:02:45.826Z,1.65
2023-04-19T22:05:13.701Z,1.20
2023-04-19T22:07:42.009Z,1.10
2023-04-19T22:10:12.157Z,1.45
2023-04-19T22:12:51.308Z,1.25
2023-04-19T22:15:25.822Z,1.20
2023-04-19T22:17:53.514Z,1.73
2023-04-19T22:20:21.216Z,1.50
2023-04-19T22:22:49.056Z,1.30
2023-04-19T22:25:18.291Z,1.50
2023-04-19T22:27:48.654Z,1.25
2023-04-19T22:30:16.894Z,1.58
2023-04-19T22:32:44.692Z,1.20
2023-04-19T22:35:13.059Z,1.50
2023-04-19T22:37:40.722Z,1.38
2023-04-19T22:40:09.612Z,1.45
2023-04-19T22:42:38.523Z,1.38
2023-04-19T22:45:07.409Z,1.52
2023-04-19T22:47:35.101Z,1.73
2023-04-19T22:50:02.673Z,1.45
2023-04-19T22:52:30.584Z,1.63
2023-04-19T22:54:58.198Z,2.00
2023-04-19T22:57:25.870Z,1.40
2023-04-19T22:59:55.360Z,2.03
2023-04-19T23:02:26.136Z,1.73
2023-04-19T23:04:54.273Z,2.60
2023-04-19T23:07:22.740Z,2.10
2023-04-19T23:09:51.676Z,1.60
2023-04-19T23:12:19.344Z,1.50
2023-04-19T23:14:48.278Z,1.35
2023-04-19T23:17:17.455Z,1.60
2023-04-19T23:19:47.259Z,1.33
2023-04-19T23:22:14.940Z,1.30
2023-04-19T23:24:42.736Z,1.63
2023-04-19T23:27:10.337Z,2.13
2023-04-19T23:29:37.885Z,2.40
2023-04-19T23:32:05.766Z,2.20
2023-04-19T23:34:34.724Z,2.60
2023-04-19T23:37:02.381Z,2.15
2023-04-19T23:39:29.998Z,2.65
2023-04-19T23:41:57.942Z,2.75
2023-04-19T23:44:27.729Z,2.40
2023-04-19T23:46:55.497Z,2.90
2023-04-19T23:49:23.391Z,2.40
2023-04-19T23:51:52.609Z,2.50
2023-04-19T23:54:22.155Z,2.30
2023-04-19T23:56:50.575Z,2.90
2023-04-19T23:59:18.934Z,2.80
